createdAt,value
2022-12-06T00:01:15.866Z,44.80
2022-12-06T00:03:44.726Z,45.85
2022-12-06T00:06:14.654Z,43.83
2022-12-06T00:08:42.655Z,44.70
2022-12-06T00:11:14.246Z,46.30
2022-12-06T00:13:42.573Z,44.65
2022-12-06T00:16:11.990Z,45.22
2022-12-06T00:18:41.424Z,40.83
2022-12-06T00:21:21.096Z,43.78
2022-12-06T00:23:51.648Z,42.00
2022-12-06T00:26:19.586Z,44.40
2022-12-06T00:28:47.035Z,41.95
2022-12-06T00:31:18.460Z,39.00
2022-12-06T00:33:45.895Z,41.47
2022-12-06T00:36:18.424Z,41.63
2022-12-06T00:41:21.252Z,37.47
2022-12-06T00:43:48.840Z,39.13
2022-12-06T00:46:18.181Z,38.67
2022-12-06T00:48:46.484Z,35.95
2022-12-06T00:51:14.096Z,38.17
2022-12-06T00:53:41.929Z,37.63
2022-12-06T00:56:09.044Z,39.03
2022-12-06T00:58:36.258Z,38.47
2022-12-06T01:01:08.917Z,36.55
2022-12-06T01:03:36.378Z,36.42
2022-12-06T01:06:08.306Z,35.63
2022-12-06T01:08:36.969Z,36.58
2022-12-06T01:11:04.944Z,35.42
2022-12-06T01:13:32.487Z,36.80
2022-12-06T01:16:08.168Z,35.83
2022-12-06T01:18:36.913Z,35.13
2022-12-06T01:21:12.834Z,34.50
2022-12-06T01:23:40.250Z,34.53
2022-12-06T01:26:07.902Z,33.63
2022-12-06T01:28:35.354Z,34.00
2022-12-06T01:31:06.915Z,35.38
2022-12-06T01:33:34.615Z,35.77
2022-12-06T01:36:01.411Z,34.53
2022-12-06T01:38:28.711Z,36.20
2022-12-06T01:40:55.619Z,35.20
2022-12-06T01:43:49.929Z,34.83
2022-12-06T01:46:33.374Z,34.05
2022-12-06T01:49:18.099Z,33.25
2022-12-06T01:51:59.732Z,34.38
2022-12-06T01:54:27.681Z,33.25
2022-12-06T01:56:56.086Z,34.00
2022-12-06T01:59:25.294Z,35.50
2022-12-06T02:01:52.821Z,36.38
2022-12-06T02:04:21.763Z,35.15
2022-12-06T02:06:49.764Z,35.13
2022-12-06T02:09:18.033Z,35.90
2022-12-06T02:11:45.800Z,32.83
2022-12-06T02:14:17.281Z,35.45
2022-12-06T02:17:21.589Z,34.60
2022-12-06T02:20:17.837Z,33.28
2022-12-06T02:23:14.582Z,35.05
2022-12-06T02:26:13.062Z,34.17
2022-12-06T02:29:17.359Z,34.00
2022-12-06T02:31:51.318Z,33.63
2022-12-06T02:34:46.449Z,34.10
2022-12-06T02:37:21.166Z,31.75
2022-12-06T02:40:14.270Z,32.95
2022-12-06T02:42:55.658Z,33.33
2022-12-06T02:45:32.118Z,34.20
2022-12-06T02:48:02.937Z,32.35
2022-12-06T02:50:35.388Z,33.42
2022-12-06T02:53:04.504Z,33.85
2022-12-06T02:55:33.126Z,33.55
2022-12-06T02:57:59.701Z,32.65
2022-12-06T03:00:43.010Z,33.72
2022-12-06T03:03:39.703Z,33.05
2022-12-06T03:06:15.215Z,32.97
2022-12-06T03:09:09.893Z,31.63
2022-12-06T03:12:06.601Z,33.58
2022-12-06T03:14:49.136Z,32.13
2022-12-06T03:17:24.649Z,33.47
2022-12-06T03:19:59.669Z,32.53
2022-12-06T03:22:39.631Z,32.03
2022-12-06T03:25:09.433Z,31.80
2022-12-06T03:27:36.648Z,32.03
2022-12-06T03:30:09.999Z,31.63
2022-12-06T03:32:40.942Z,31.15
2022-12-06T03:35:11.221Z,32.75
2022-12-06T03:37:40.753Z,30.23
2022-12-06T03:40:21.427Z,31.15
2022-12-06T03:42:48.955Z,30.55
2022-12-06T03:45:16.764Z,30.23
2022-12-06T03:47:47.908Z,29.27
2022-12-06T03:50:34.129Z,29.00
2022-12-06T03:53:01.431Z,30.35
2022-12-06T03:55:28.754Z,29.23
2022-12-06T03:57:55.442Z,29.02
2022-12-06T04:00:22.860Z,28.67
2022-12-06T04:02:49.500Z,29.27
2022-12-06T04:05:16.960Z,28.55
2022-12-06T04:07:43.629Z,27.23
2022-12-06T04:10:11.234Z,27.08
2022-12-06T04:12:56.614Z,28.88
2022-12-06T04:15:23.995Z,26.75
2022-12-06T04:18:09.700Z,26.63
2022-12-06T04:21:23.152Z,28.17
2022-12-06T04:23:52.184Z,25.85
2022-12-06T04:26:21.588Z,26.15
2022-12-06T04:29:08.436Z,26.20
2022-12-06T04:31:54.990Z,26.05
2022-12-06T04:34:40.881Z,26.15
2022-12-06T04:37:26.335Z,25.00
2022-12-06T04:39:53.604Z,24.00
2022-12-06T04:42:38.749Z,25.33
2022-12-06T04:45:06.951Z,25.05
2022-12-06T04:47:33.524Z,25.08
2022-12-06T04:50:01.200Z,22.27
2022-12-06T04:52:32.649Z,24.92
2022-12-06T04:55:03.085Z,23.45
2022-12-06T04:57:29.756Z,23.38
2022-12-06T04:59:57.267Z,23.52
2022-12-06T05:02:23.944Z,25.10
2022-12-06T05:04:51.321Z,21.67
2022-12-06T05:07:17.978Z,23.10
2022-12-06T05:09:45.228Z,22.80
2022-12-06T05:12:11.836Z,22.23
2022-12-06T05:14:39.129Z,23.08
2022-12-06T05:17:05.749Z,22.05
2022-12-06T05:19:32.988Z,22.77
2022-12-06T05:21:59.556Z,21.65
2022-12-06T05:24:26.903Z,20.95
2022-12-06T05:26:53.520Z,20.98
2022-12-06T05:29:20.897Z,20.90
2022-12-06T05:31:47.760Z,21.35
2022-12-06T05:34:15.237Z,19.42
2022-12-06T05:36:44.695Z,20.33
2022-12-06T05:39:12.117Z,19.70
2022-12-06T05:41:38.712Z,19.65
2022-12-06T05:44:06.048Z,19.27
2022-12-06T05:46:32.677Z,20.38
2022-12-06T05:48:59.979Z,18.98
2022-12-06T05:51:26.563Z,17.73
2022-12-06T05:53:53.564Z,19.17
2022-12-06T05:56:20.869Z,19.10
2022-12-06T05:58:47.458Z,20.48
2022-12-06T06:01:14.667Z,18.30
2022-12-06T06:03:47.207Z,19.05
2022-12-06T06:06:15.846Z,19.30
2022-12-06T06:08:42.504Z,20.40
2022-12-06T06:11:09.684Z,19.67
2022-12-06T06:13:36.342Z,20.42
2022-12-06T06:16:03.862Z,19.75
2022-12-06T06:18:30.449Z,20.45
2022-12-06T06:20:59.946Z,21.65
2022-12-06T06:23:27.649Z,20.60
2022-12-06T06:25:55.343Z,21.38
2022-12-06T06:28:22.148Z,22.80
2022-12-06T06:30:49.377Z,22.92
2022-12-06T06:33:16.625Z,24.15
2022-12-06T06:35:44.202Z,22.45
2022-12-06T06:38:10.818Z,22.95
2022-12-06T06:40:38.058Z,22.52
2022-12-06T06:43:23.428Z,23.35
2022-12-06T06:45:59.663Z,24.05
2022-12-06T06:48:28.753Z,23.17
2022-12-06T06:50:57.900Z,22.73
2022-12-06T06:53:27.312Z,23.80
2022-12-06T06:55:54.556Z,23.50
2022-12-06T06:58:21.392Z,24.83
2022-12-06T07:00:57.581Z,22.40
2022-12-06T07:03:24.981Z,24.63
2022-12-06T07:05:53.989Z,23.23
2022-12-06T07:08:20.835Z,24.95
2022-12-06T07:10:49.093Z,22.42
2022-12-06T07:13:16.675Z,23.52
2022-12-06T07:15:44.082Z,25.67
2022-12-06T07:18:10.658Z,23.65
2022-12-06T07:20:37.967Z,23.20
2022-12-06T07:23:04.983Z,23.77
2022-12-06T07:25:32.367Z,23.60
2022-12-06T07:27:59.068Z,23.05
2022-12-06T07:30:27.790Z,23.50
2022-12-06T07:32:54.815Z,22.88
2022-12-06T07:35:22.372Z,23.65
2022-12-06T07:37:49.055Z,23.27
2022-12-06T07:40:17.498Z,22.58
2022-12-06T07:43:03.495Z,23.45
2022-12-06T07:45:30.491Z,24.08
2022-12-06T07:47:57.473Z,24.25
2022-12-06T07:50:24.598Z,25.75
2022-12-06T07:52:51.936Z,24.70
2022-12-06T07:55:19.389Z,23.73
2022-12-06T07:57:46.373Z,24.38
2022-12-06T08:00:16.396Z,24.77
2022-12-06T08:02:43.229Z,24.27
2022-12-06T08:05:10.885Z,26.20
2022-12-06T08:07:38.108Z,28.60
2022-12-06T08:10:06.771Z,25.92
2022-12-06T08:12:33.522Z,25.45
2022-12-06T08:15:00.805Z,25.98
2022-12-06T08:17:29.585Z,23.38
2022-12-06T08:19:56.198Z,22.60
2022-12-06T08:22:23.458Z,24.30
2022-12-06T08:24:50.298Z,22.83
2022-12-06T08:27:17.529Z,23.83
2022-12-06T08:29:45.217Z,24.40
2022-12-06T08:32:12.618Z,24.73
2022-12-06T08:34:39.285Z,25.23
2022-12-06T08:37:06.580Z,22.33
2022-12-06T08:39:33.215Z,22.75
2022-12-06T08:42:02.508Z,23.38
2022-12-06T08:44:31.331Z,23.00
2022-12-06T08:47:00.650Z,22.90
2022-12-06T08:49:28.800Z,21.13
2022-12-06T08:51:57.867Z,20.98
2022-12-06T08:54:25.280Z,21.02
2022-12-06T08:56:53.228Z,21.02
2022-12-06T08:59:20.143Z,22.17
2022-12-06T09:01:47.931Z,21.25
2022-12-06T09:04:15.100Z,22.48
2022-12-06T09:06:44.603Z,20.70
2022-12-06T09:09:12.536Z,20.38
2022-12-06T09:11:41.267Z,21.63
2022-12-06T09:14:13.263Z,21.35
2022-12-06T09:16:44.896Z,20.38
2022-12-06T09:19:13.280Z,20.70
2022-12-06T09:21:43.249Z,21.67
2022-12-06T09:24:15.524Z,20.70
2022-12-06T09:26:42.877Z,19.40
2022-12-06T09:29:10.242Z,20.25
2022-12-06T09:31:40.439Z,18.98
2022-12-06T09:34:08.911Z,18.90
2022-12-06T09:36:42.124Z,18.27
2022-12-06T09:42:20.623Z,16.90
2022-12-06T09:45:01.029Z,17.60
2022-12-06T09:47:54.158Z,18.83
2022-12-06T09:50:39.210Z,18.80
2022-12-06T09:53:43.282Z,16.92
2022-12-06T09:56:16.006Z,17.77
2022-12-06T09:59:01.131Z,18.67
2022-12-06T10:01:37.274Z,15.43
2022-12-06T10:04:41.310Z,15.15
2022-12-06T10:07:50.151Z,13.60
2022-12-06T10:10:26.109Z,22.33
2022-12-06T10:13:11.898Z,28.15
2022-12-06T10:15:56.409Z,35.58
2022-12-06T10:19:01.479Z,31.10
2022-12-06T10:22:14.840Z,14.50
2022-12-06T10:25:09.352Z,13.10
2022-12-06T10:27:48.348Z,18.23
2022-12-06T10:30:16.238Z,12.30
2022-12-06T10:32:51.652Z,13.73
2022-12-06T10:35:40.382Z,15.10
2022-12-06T10:38:19.341Z,13.68
2022-12-06T10:40:49.446Z,12.80
2022-12-06T10:43:25.725Z,17.08
2022-12-06T10:46:30.072Z,14.23
2022-12-06T10:49:19.038Z,15.45
2022-12-06T10:52:09.170Z,14.88
2022-12-06T10:54:46.489Z,12.05
2022-12-06T10:57:28.214Z,18.40
2022-12-06T11:00:03.925Z,19.52
2022-12-06T11:02:53.601Z,23.85
2022-12-06T11:05:36.557Z,12.82
2022-12-06T11:08:10.957Z,10.65
2022-12-06T11:10:39.082Z,8.85
2022-12-06T11:13:42.628Z,10.23
2022-12-06T11:16:33.351Z,10.85
2022-12-06T11:19:23.205Z,12.60
2022-12-06T11:22:16.381Z,23.25
2022-12-06T11:25:25.992Z,12.15
2022-12-06T11:28:05.638Z,11.93
2022-12-06T11:30:33.459Z,8.98
2022-12-06T11:33:02.392Z,8.38
2022-12-06T11:35:29.307Z,8.98
2022-12-06T11:38:01.261Z,8.75
2022-12-06T11:40:32.239Z,8.13
2022-12-06T11:43:01.631Z,8.07
2022-12-06T11:45:33.401Z,7.78
2022-12-06T11:48:11.058Z,7.78
2022-12-06T11:50:37.852Z,7.53
2022-12-06T11:53:30.468Z,7.65
2022-12-06T11:56:02.883Z,7.82
2022-12-06T11:58:44.457Z,7.30
2022-12-06T12:01:14.428Z,10.82
2022-12-06T12:03:48.475Z,10.05
2022-12-06T12:06:23.139Z,11.25
2022-12-06T12:09:06.155Z,10.27
2022-12-06T12:11:37.219Z,10.00
2022-12-06T12:14:14.464Z,12.63
2022-12-06T12:16:48.119Z,17.05
2022-12-06T12:19:40.462Z,9.07
2022-12-06T12:22:36.533Z,10.52
2022-12-06T12:25:25.765Z,14.13
2022-12-06T12:27:55.014Z,10.45
2022-12-06T12:30:35.224Z,12.80
2022-12-06T12:33:08.346Z,9.77
2022-12-06T12:35:43.883Z,8.30
2022-12-06T12:38:10.853Z,7.70
2022-12-06T12:40:44.092Z,10.07
2022-12-06T12:43:11.076Z,12.55
2022-12-06T12:46:02.542Z,10.55
2022-12-06T12:48:30.071Z,11.45
2022-12-06T12:51:00.311Z,10.27
2022-12-06T12:53:36.057Z,6.88
2022-12-06T12:56:14.437Z,7.15
2022-12-06T12:58:43.440Z,7.32
2022-12-06T13:01:25.705Z,10.30
2022-12-06T13:04:20.149Z,8.48
2022-12-06T13:06:54.198Z,7.32
2022-12-06T13:09:39.413Z,7.57
2022-12-06T13:12:13.245Z,6.55
2022-12-06T13:14:50.432Z,7.30
2022-12-06T13:17:18.606Z,7.35
2022-12-06T13:19:53.291Z,7.30
2022-12-06T13:22:26.415Z,6.40
2022-12-06T13:25:03.704Z,7.22
2022-12-06T13:27:35.619Z,6.90
2022-12-06T13:30:17.537Z,6.95
2022-12-06T13:32:59.152Z,6.60
2022-12-06T13:35:35.016Z,6.13
2022-12-06T13:38:26.143Z,6.72
2022-12-06T13:40:59.474Z,7.05
2022-12-06T13:43:26.079Z,6.38
2022-12-06T13:46:21.870Z,6.00
2022-12-06T13:48:57.400Z,5.68
2022-12-06T13:51:37.674Z,4.63
2022-12-06T13:54:05.182Z,3.95
2022-12-06T13:56:34.765Z,4.32
2022-12-06T13:59:04.991Z,4.65
2022-12-06T14:01:51.861Z,4.03
2022-12-06T14:06:56.235Z,4.75
2022-12-06T14:09:25.889Z,4.07
2022-12-06T14:11:53.358Z,5.75
2022-12-06T14:14:24.317Z,4.65
2022-12-06T14:16:52.871Z,4.78
2022-12-06T14:19:30.707Z,4.45
2022-12-06T14:22:03.275Z,5.18
2022-12-06T14:24:32.705Z,4.88
2022-12-06T14:27:11.272Z,4.53
2022-12-06T14:29:39.606Z,5.20
2022-12-06T14:32:06.862Z,4.30
2022-12-06T14:34:35.742Z,4.65
2022-12-06T14:37:21.269Z,4.88
2022-12-06T14:39:53.231Z,4.78
2022-12-06T14:42:46.145Z,4.70
2022-12-06T14:45:15.878Z,4.85
2022-12-06T14:47:44.795Z,5.10
2022-12-06T14:50:28.867Z,5.63
2022-12-06T14:53:14.405Z,5.05
2022-12-06T14:55:59.969Z,4.97
2022-12-06T14:58:33.702Z,5.47
2022-12-06T15:01:04.694Z,5.47
2022-12-06T15:03:38.784Z,5.72
2022-12-06T15:06:18.918Z,5.45
2022-12-06T15:08:55.289Z,4.95
2022-12-06T15:11:47.015Z,4.43
2022-12-06T15:14:49.090Z,5.03
2022-12-06T15:17:22.043Z,4.90
2022-12-06T15:22:27.418Z,5.93
2022-12-06T15:24:57.618Z,6.53
2022-12-06T15:27:26.765Z,5.88
2022-12-06T15:29:53.663Z,6.30
2022-12-06T15:32:23.474Z,6.70
2022-12-06T15:34:50.822Z,6.68
2022-12-06T15:40:04.915Z,11.73
2022-12-06T15:42:31.658Z,9.50
2022-12-06T15:44:58.571Z,7.80
2022-12-06T15:47:25.263Z,8.13
2022-12-06T15:49:54.196Z,8.52
2022-12-06T15:52:24.768Z,8.18
2022-12-06T15:54:52.327Z,7.80
2022-12-06T15:57:19.010Z,7.78
2022-12-06T15:59:45.661Z,8.73
2022-12-06T16:02:15.436Z,8.45
2022-12-06T16:04:43.243Z,7.38
2022-12-06T16:07:10.565Z,8.25
2022-12-06T16:09:37.342Z,9.07
2022-12-06T16:12:04.587Z,9.00
2022-12-06T16:14:31.221Z,9.63
2022-12-06T16:16:58.162Z,8.80
2022-12-06T16:19:44.784Z,8.75
2022-12-06T16:22:11.390Z,7.72
2022-12-06T16:24:38.133Z,7.95
2022-12-06T16:27:05.107Z,7.90
2022-12-06T16:29:31.875Z,8.57
2022-12-06T16:31:58.532Z,10.35
2022-12-06T16:34:27.306Z,11.52
2022-12-06T16:37:04.081Z,16.17
2022-12-06T16:39:33.657Z,27.17
2022-12-06T16:42:01.431Z,15.70
2022-12-06T16:44:29.043Z,12.20
2022-12-06T16:46:55.826Z,11.88
2022-12-06T16:52:15.780Z,11.52
2022-12-06T16:54:43.359Z,11.55
2022-12-06T16:57:11.791Z,10.25
2022-12-06T16:59:39.175Z,8.98
2022-12-06T17:02:26.935Z,9.70
2022-12-06T17:04:54.824Z,9.82
2022-12-06T17:07:21.626Z,10.20
2022-12-06T17:09:48.932Z,11.75
2022-12-06T17:12:15.558Z,11.05
2022-12-06T17:14:42.916Z,16.50
2022-12-06T17:17:19.993Z,11.68
2022-12-06T17:19:48.021Z,13.18
2022-12-06T17:22:19.017Z,14.00
2022-12-06T17:24:46.553Z,14.65
2022-12-06T17:27:14.600Z,14.32
2022-12-06T17:29:43.876Z,10.90
2022-12-06T17:32:11.313Z,10.38
2022-12-06T17:34:38.737Z,9.70
2022-12-06T17:37:05.997Z,11.93
2022-12-06T17:39:33.489Z,10.95
2022-12-06T17:42:18.705Z,10.80
2022-12-06T17:44:46.059Z,10.88
2022-12-06T17:47:12.759Z,11.20
2022-12-06T17:49:40.151Z,10.43
2022-12-06T17:52:06.834Z,11.07
2022-12-06T17:54:34.179Z,14.10
2022-12-06T17:57:00.858Z,12.75
2022-12-06T17:59:32.039Z,13.05
2022-12-06T18:02:16.934Z,14.20
2022-12-06T18:04:45.646Z,15.15
2022-12-06T18:07:14.136Z,13.68
2022-12-06T18:09:41.495Z,13.95
2022-12-06T18:12:09.426Z,14.73
2022-12-06T18:14:36.663Z,15.20
2022-12-06T18:17:04.252Z,12.88
2022-12-06T18:19:32.136Z,12.27
2022-12-06T18:21:58.787Z,13.60
2022-12-06T18:24:30.534Z,13.35
2022-12-06T18:27:01.471Z,14.07
2022-12-06T18:29:29.089Z,13.75
2022-12-06T18:31:55.858Z,12.85
2022-12-06T18:34:23.372Z,16.42
2022-12-06T18:36:51.088Z,15.88
2022-12-06T18:39:24.648Z,13.48
2022-12-06T18:41:53.131Z,12.18
2022-12-06T18:44:20.541Z,11.98
2022-12-06T18:46:47.225Z,11.43
2022-12-06T18:49:14.829Z,11.23
2022-12-06T18:51:41.785Z,11.73
2022-12-06T18:54:10.954Z,13.05
2022-12-06T18:56:37.684Z,12.85
2022-12-06T18:59:07.427Z,12.82
2022-12-06T19:01:37.307Z,14.30
2022-12-06T19:04:06.860Z,16.70
2022-12-06T19:06:35.982Z,14.88
2022-12-06T19:09:07.961Z,16.35
2022-12-06T19:11:39.541Z,13.27
2022-12-06T19:14:08.411Z,15.13
2022-12-06T19:16:46.568Z,14.68
2022-12-06T19:19:25.678Z,14.43
2022-12-06T19:21:53.688Z,15.52
2022-12-06T19:24:23.823Z,14.13
2022-12-06T19:26:51.929Z,13.38
2022-12-06T19:29:19.492Z,14.35
2022-12-06T19:31:46.573Z,13.77
2022-12-06T19:34:25.834Z,13.52
2022-12-06T19:36:53.943Z,13.65
2022-12-06T19:39:21.937Z,14.50
2022-12-06T19:42:07.052Z,15.35
2022-12-06T19:44:34.662Z,13.90
2022-12-06T19:47:01.293Z,13.05
2022-12-06T19:49:29.167Z,13.10
2022-12-06T19:51:56.012Z,14.65
2022-12-06T19:54:26.028Z,14.27
2022-12-06T19:56:54.716Z,14.18
2022-12-06T19:59:23.601Z,14.20
2022-12-06T20:01:50.859Z,14.55
2022-12-06T20:04:20.739Z,15.73
2022-12-06T20:06:47.665Z,16.05
2022-12-06T20:09:15.510Z,16.50
2022-12-06T20:12:01.163Z,14.95
2022-12-06T20:14:46.090Z,14.85
2022-12-06T20:17:16.248Z,14.63
2022-12-06T20:19:46.288Z,14.48
2022-12-06T20:22:14.312Z,16.30
2022-12-06T20:24:41.776Z,16.85
2022-12-06T20:27:08.696Z,16.00
2022-12-06T20:29:36.141Z,16.90
2022-12-06T20:32:03.768Z,17.27
2022-12-06T20:34:34.549Z,16.30
2022-12-06T20:37:03.663Z,17.38
2022-12-06T20:39:33.148Z,17.42
2022-12-06T20:42:00.906Z,17.02
2022-12-06T20:44:28.249Z,15.88
2022-12-06T20:46:55.137Z,17.98
2022-12-06T20:49:22.394Z,17.10
2022-12-06T20:51:52.944Z,17.15
2022-12-06T20:54:21.759Z,16.88
2022-12-06T20:56:51.277Z,17.50
2022-12-06T20:59:18.333Z,17.95
2022-12-06T21:01:45.661Z,19.35
2022-12-06T21:04:13.621Z,17.65
2022-12-06T21:06:41.037Z,19.42
2022-12-06T21:09:07.784Z,18.85
2022-12-06T21:11:35.248Z,19.27
2022-12-06T21:14:03.178Z,21.23
2022-12-06T21:16:32.138Z,20.40
2022-12-06T21:19:04.548Z,20.35
2022-12-06T21:21:34.813Z,21.02
2022-12-06T21:24:03.338Z,21.17
2022-12-06T21:26:30.914Z,21.20
2022-12-06T21:28:58.430Z,21.48
2022-12-06T21:31:27.840Z,20.98
2022-12-06T21:33:55.578Z,23.55
2022-12-06T21:36:23.154Z,23.23
2022-12-06T21:38:49.787Z,24.55
2022-12-06T21:41:17.329Z,24.88
2022-12-06T21:43:44.393Z,23.67
2022-12-06T21:46:20.604Z,24.23
2022-12-06T21:48:51.224Z,22.55
2022-12-06T21:51:19.333Z,23.92
2022-12-06T21:53:46.264Z,24.17
2022-12-06T21:56:16.133Z,24.63
2022-12-06T21:58:43.497Z,24.83
2022-12-06T22:01:13.708Z,24.92
2022-12-06T22:03:40.763Z,27.67
2022-12-06T22:06:13.004Z,25.90
2022-12-06T22:08:41.101Z,24.95
2022-12-06T22:11:14.173Z,29.88
2022-12-06T22:13:41.291Z,26.83
2022-12-06T22:16:10.761Z,26.55
2022-12-06T22:18:44.377Z,26.52
2022-12-06T22:21:19.207Z,26.48
2022-12-06T22:23:47.110Z,26.13
2022-12-06T22:26:17.633Z,27.02
2022-12-06T22:28:45.001Z,27.10
2022-12-06T22:31:15.342Z,26.92
2022-12-06T22:33:42.885Z,27.25
2022-12-06T22:36:10.974Z,27.50
2022-12-06T22:38:37.587Z,28.23
2022-12-06T22:41:05.785Z,29.02
2022-12-06T22:43:33.345Z,26.95
2022-12-06T22:46:09.660Z,27.75
2022-12-06T22:48:37.201Z,28.67
2022-12-06T22:51:14.054Z,29.20
2022-12-06T22:53:42.950Z,28.10
2022-12-06T22:56:11.250Z,28.30
2022-12-06T22:58:38.326Z,29.52
2022-12-06T23:01:16.055Z,27.45
2022-12-06T23:03:45.362Z,27.27
2022-12-06T23:06:12.778Z,27.83
2022-12-06T23:08:40.457Z,27.67
2022-12-06T23:11:13.681Z,28.48
2022-12-06T23:13:40.818Z,28.38
2022-12-06T23:16:11.718Z,27.20
2022-12-06T23:18:38.839Z,28.70
2022-12-06T23:21:17.848Z,28.77
2022-12-06T23:23:48.119Z,28.70
2022-12-06T23:26:17.691Z,28.05
2022-12-06T23:28:45.208Z,28.90
2022-12-06T23:31:14.838Z,28.35
2022-12-06T23:33:43.668Z,30.38
2022-12-06T23:36:22.007Z,28.58
2022-12-06T23:38:49.800Z,29.63
2022-12-06T23:41:37.124Z,28.15
2022-12-06T23:44:06.040Z,30.23
2022-12-06T23:46:35.510Z,28.60
2022-12-06T23:49:03.660Z,28.20
2022-12-06T23:51:34.394Z,28.23
2022-12-06T23:54:04.245Z,27.35
2022-12-06T23:56:33.484Z,28.92
2022-12-06T23:59:02.182Z,29.15
